sensor_id;sensor_type;location;lat;lon;timestamp;temperature;humidity
51815;DHT22;37874;53.158;6.766;2023-06-26T00:02:16;30.40;46.20
51815;DHT22;37874;53.158;6.766;2023-06-26T00:04:43;30.40;46.30
51815;DHT22;37874;53.158;6.766;2023-06-26T00:07:09;30.40;46.30
51815;DHT22;37874;53.158;6.766;2023-06-26T00:09:35;30.30;46.20
51815;DHT22;37874;53.158;6.766;2023-06-26T00:12:00;30.30;46.30
51815;DHT22;37874;53.158;6.766;2023-06-26T00:14:26;30.30;46.30
51815;DHT22;37874;53.158;6.766;2023-06-26T00:16:52;30.30;46.30
51815;DHT22;37874;53.158;6.766;2023-06-26T00:19:18;30.30;46.40
51815;DHT22;37874;53.158;6.766;2023-06-26T00:21:44;30.30;46.40
51815;DHT22;37874;53.158;6.766;2023-06-26T00:24:16;30.30;46.50
51815;DHT22;37874;53.158;6.766;2023-06-26T00:26:43;30.30;46.50
51815;DHT22;37874;53.158;6.766;2023-06-26T00:29:09;30.30;46.50
51815;DHT22;37874;53.158;6.766;2023-06-26T00:31:34;30.20;46.50
51815;DHT22;37874;53.158;6.766;2023-06-26T00:34:03;30.20;46.50
51815;DHT22;37874;53.158;6.766;2023-06-26T00:36:29;30.20;46.50
51815;DHT22;37874;53.158;6.766;2023-06-26T00:38:54;30.20;46.50
51815;DHT22;37874;53.158;6.766;2023-06-26T00:41:20;30.20;46.60
51815;DHT22;37874;53.158;6.766;2023-06-26T00:43:45;30.20;46.60
51815;DHT22;37874;53.158;6.766;2023-06-26T00:46:13;30.20;46.60
51815;DHT22;37874;53.158;6.766;2023-06-26T00:48:40;30.20;46.70
51815;DHT22;37874;53.158;6.766;2023-06-26T00:51:07;30.10;46.70
51815;DHT22;37874;53.158;6.766;2023-06-26T00:53:33;30.20;46.70
51815;DHT22;37874;53.158;6.766;2023-06-26T00:56:00;30.10;46.70
51815;DHT22;37874;53.158;6.766;2023-06-26T00:58:26;30.10;46.70
51815;DHT22;37874;53.158;6.766;2023-06-26T01:00:52;30.10;46.70
51815;DHT22;37874;53.158;6.766;2023-06-26T01:03:19;30.10;46.70
51815;DHT22;37874;53.158;6.766;2023-06-26T01:05:45;30.10;46.80
51815;DHT22;37874;53.158;6.766;2023-06-26T01:08:15;30.10;46.80
51815;DHT22;37874;53.158;6.766;2023-06-26T01:10:41;30.10;46.80
51815;DHT22;37874;53.158;6.766;2023-06-26T01:13:07;30.10;46.80
51815;DHT22;37874;53.158;6.766;2023-06-26T01:15:33;30.00;46.70
51815;DHT22;37874;53.158;6.766;2023-06-26T01:17:59;30.10;46.80
51815;DHT22;37874;53.158;6.766;2023-06-26T01:20:41;30.00;46.80
51815;DHT22;37874;53.158;6.766;2023-06-26T01:23:24;30.00;46.80
51815;DHT22;37874;53.158;6.766;2023-06-26T01:28:20;30.00;46.80
51815;DHT22;37874;53.158;6.766;2023-06-26T01:30:46;30.00;46.80
51815;DHT22;37874;53.158;6.766;2023-06-26T01:33:13;30.00;46.90
51815;DHT22;37874;53.158;6.766;2023-06-26T01:35:40;30.00;46.90
51815;DHT22;37874;53.158;6.766;2023-06-26T01:38:20;30.00;46.90
51815;DHT22;37874;53.158;6.766;2023-06-26T01:40:46;30.00;46.90
51815;DHT22;37874;53.158;6.766;2023-06-26T01:43:41;30.00;46.90
51815;DHT22;37874;53.158;6.766;2023-06-26T01:46:18;29.90;46.90
51815;DHT22;37874;53.158;6.766;2023-06-26T01:48:54;29.90;46.90
51815;DHT22;37874;53.158;6.766;2023-06-26T01:51:27;29.90;46.90
51815;DHT22;37874;53.158;6.766;2023-06-26T01:53:56;29.90;46.90
51815;DHT22;37874;53.158;6.766;2023-06-26T01:56:24;29.90;46.90
51815;DHT22;37874;53.158;6.766;2023-06-26T01:58:50;29.90;47.00
51815;DHT22;37874;53.158;6.766;2023-06-26T02:01:20;29.90;47.00
51815;DHT22;37874;53.158;6.766;2023-06-26T02:03:45;29.90;47.00
51815;DHT22;37874;53.158;6.766;2023-06-26T02:06:11;29.90;47.00
51815;DHT22;37874;53.158;6.766;2023-06-26T02:08:37;29.90;47.00
51815;DHT22;37874;53.158;6.766;2023-06-26T02:11:02;29.90;47.00
51815;DHT22;37874;53.158;6.766;2023-06-26T02:13:28;29.90;47.10
51815;DHT22;37874;53.158;6.766;2023-06-26T02:15:53;29.80;47.50
51815;DHT22;37874;53.158;6.766;2023-06-26T02:18:19;29.80;47.00
51815;DHT22;37874;53.158;6.766;2023-06-26T02:20:48;29.80;47.00
51815;DHT22;37874;53.158;6.766;2023-06-26T02:23:13;29.80;47.00
51815;DHT22;37874;53.158;6.766;2023-06-26T02:25:39;29.80;47.00
51815;DHT22;37874;53.158;6.766;2023-06-26T02:28:05;29.80;47.00
51815;DHT22;37874;53.158;6.766;2023-06-26T02:30:30;29.80;47.00
51815;DHT22;37874;53.158;6.766;2023-06-26T02:32:56;29.70;47.00
51815;DHT22;37874;53.158;6.766;2023-06-26T02:35:21;29.80;47.10
51815;DHT22;37874;53.158;6.766;2023-06-26T02:37:47;29.80;47.10
51815;DHT22;37874;53.158;6.766;2023-06-26T02:40:12;29.80;47.10
51815;DHT22;37874;53.158;6.766;2023-06-26T02:42:38;29.70;47.10
51815;DHT22;37874;53.158;6.766;2023-06-26T02:45:04;29.80;47.80
51815;DHT22;37874;53.158;6.766;2023-06-26T02:47:30;29.70;47.10
51815;DHT22;37874;53.158;6.766;2023-06-26T02:49:55;29.70;47.10
51815;DHT22;37874;53.158;6.766;2023-06-26T02:52:21;29.80;47.20
51815;DHT22;37874;53.158;6.766;2023-06-26T02:54:46;29.70;47.10
51815;DHT22;37874;53.158;6.766;2023-06-26T02:57:12;29.70;47.10
51815;DHT22;37874;53.158;6.766;2023-06-26T02:59:40;29.70;47.10
51815;DHT22;37874;53.158;6.766;2023-06-26T03:02:06;29.70;47.20
51815;DHT22;37874;53.158;6.766;2023-06-26T03:04:31;29.70;47.80
51815;DHT22;37874;53.158;6.766;2023-06-26T03:06:57;29.70;47.20
51815;DHT22;37874;53.158;6.766;2023-06-26T03:09:22;29.70;47.20
51815;DHT22;37874;53.158;6.766;2023-06-26T03:11:48;29.60;47.20
51815;DHT22;37874;53.158;6.766;2023-06-26T03:14:13;29.60;47.20
51815;DHT22;37874;53.158;6.766;2023-06-26T03:16:39;29.60;47.20
51815;DHT22;37874;53.158;6.766;2023-06-26T03:19:05;29.70;47.30
51815;DHT22;37874;53.158;6.766;2023-06-26T03:21:32;29.60;47.20
51815;DHT22;37874;53.158;6.766;2023-06-26T03:23:58;29.60;47.20
51815;DHT22;37874;53.158;6.766;2023-06-26T03:26:23;29.60;47.20
51815;DHT22;37874;53.158;6.766;2023-06-26T03:28:53;29.60;47.20
51815;DHT22;37874;53.158;6.766;2023-06-26T03:31:19;29.60;47.20
51815;DHT22;37874;53.158;6.766;2023-06-26T03:33:44;29.60;47.30
51815;DHT22;37874;53.158;6.766;2023-06-26T03:36:10;29.60;47.30
51815;DHT22;37874;53.158;6.766;2023-06-26T03:38:36;29.60;47.30
51815;DHT22;37874;53.158;6.766;2023-06-26T03:41:02;29.60;47.30
51815;DHT22;37874;53.158;6.766;2023-06-26T03:43:28;29.50;47.20
51815;DHT22;37874;53.158;6.766;2023-06-26T03:45:53;29.50;47.20
51815;DHT22;37874;53.158;6.766;2023-06-26T03:48:19;29.50;47.20
51815;DHT22;37874;53.158;6.766;2023-06-26T03:50:45;29.50;47.20
51815;DHT22;37874;53.158;6.766;2023-06-26T03:53:10;29.50;47.20
51815;DHT22;37874;53.158;6.766;2023-06-26T03:55:37;29.50;47.10
51815;DHT22;37874;53.158;6.766;2023-06-26T03:58:04;29.50;47.10
51815;DHT22;37874;53.158;6.766;2023-06-26T04:00:30;29.50;47.10
51815;DHT22;37874;53.158;6.766;2023-06-26T04:02:55;29.50;47.10
51815;DHT22;37874;53.158;6.766;2023-06-26T04:05:21;29.60;47.20
51815;DHT22;37874;53.158;6.766;2023-06-26T04:07:50;29.50;47.10
51815;DHT22;37874;53.158;6.766;2023-06-26T04:10:16;29.60;47.20
51815;DHT22;37874;53.158;6.766;2023-06-26T04:12:42;29.50;47.10
51815;DHT22;37874;53.158;6.766;2023-06-26T04:15:08;29.60;47.10
51815;DHT22;37874;53.158;6.766;2023-06-26T04:17:34;29.50;47.10
51815;DHT22;37874;53.158;6.766;2023-06-26T04:19:59;29.60;47.10
51815;DHT22;37874;53.158;6.766;2023-06-26T04:22:25;29.60;47.00
51815;DHT22;37874;53.158;6.766;2023-06-26T04:24:51;29.60;47.00
51815;DHT22;37874;53.158;6.766;2023-06-26T04:27:17;29.70;46.90
51815;DHT22;37874;53.158;6.766;2023-06-26T04:29:43;29.70;46.90
51815;DHT22;37874;53.158;6.766;2023-06-26T04:32:09;29.70;46.80
51815;DHT22;37874;53.158;6.766;2023-06-26T04:34:35;29.70;46.80
51815;DHT22;37874;53.158;6.766;2023-06-26T04:37:02;29.70;46.70
51815;DHT22;37874;53.158;6.766;2023-06-26T04:39:30;29.70;46.70
51815;DHT22;37874;53.158;6.766;2023-06-26T04:41:56;29.70;46.70
51815;DHT22;37874;53.158;6.766;2023-06-26T04:44:21;29.80;46.70
51815;DHT22;37874;53.158;6.766;2023-06-26T04:46:47;29.70;46.70
51815;DHT22;37874;53.158;6.766;2023-06-26T04:49:12;29.80;46.70
51815;DHT22;37874;53.158;6.766;2023-06-26T04:51:38;29.80;46.70
51815;DHT22;37874;53.158;6.766;2023-06-26T04:54:09;29.70;46.60
51815;DHT22;37874;53.158;6.766;2023-06-26T04:56:36;29.70;46.60
51815;DHT22;37874;53.158;6.766;2023-06-26T04:59:02;29.80;46.70
51815;DHT22;37874;53.158;6.766;2023-06-26T05:01:28;29.80;46.70
51815;DHT22;37874;53.158;6.766;2023-06-26T05:03:58;29.80;46.70
51815;DHT22;37874;53.158;6.766;2023-06-26T05:06:24;29.80;46.70
51815;DHT22;37874;53.158;6.766;2023-06-26T05:08:49;29.80;46.70
51815;DHT22;37874;53.158;6.766;2023-06-26T05:11:15;29.80;46.70
51815;DHT22;37874;53.158;6.766;2023-06-26T05:13:41;29.80;46.70
51815;DHT22;37874;53.158;6.766;2023-06-26T05:16:08;29.80;46.70
51815;DHT22;37874;53.158;6.766;2023-06-26T05:18:35;29.80;46.70
51815;DHT22;37874;53.158;6.766;2023-06-26T05:21:01;29.80;46.70
51815;DHT22;37874;53.158;6.766;2023-06-26T05:23:31;29.80;46.70
51815;DHT22;37874;53.158;6.766;2023-06-26T05:25:57;29.80;46.70
51815;DHT22;37874;53.158;6.766;2023-06-26T05:28:23;29.70;46.60
51815;DHT22;37874;53.158;6.766;2023-06-26T05:30:51;29.70;46.70
51815;DHT22;37874;53.158;6.766;2023-06-26T05:33:17;29.80;46.70
51815;DHT22;37874;53.158;6.766;2023-06-26T05:35:45;29.80;46.80
51815;DHT22;37874;53.158;6.766;2023-06-26T05:38:12;29.80;46.80
51815;DHT22;37874;53.158;6.766;2023-06-26T05:40:39;29.80;46.70
51815;DHT22;37874;53.158;6.766;2023-06-26T05:43:06;29.80;46.70
51815;DHT22;37874;53.158;6.766;2023-06-26T05:45:32;29.70;46.70
51815;DHT22;37874;53.158;6.766;2023-06-26T05:47:58;29.80;46.70
51815;DHT22;37874;53.158;6.766;2023-06-26T05:50:24;29.80;46.70
51815;DHT22;37874;53.158;6.766;2023-06-26T05:52:50;29.70;46.70
51815;DHT22;37874;53.158;6.766;2023-06-26T05:55:16;29.80;46.90
51815;DHT22;37874;53.158;6.766;2023-06-26T05:57:42;29.80;46.90
51815;DHT22;37874;53.158;6.766;2023-06-26T06:00:09;29.80;46.80
51815;DHT22;37874;53.158;6.766;2023-06-26T06:02:37;29.80;46.90
51815;DHT22;37874;53.158;6.766;2023-06-26T06:05:03;29.80;46.90
51815;DHT22;37874;53.158;6.766;2023-06-26T06:07:30;29.80;46.90
51815;DHT22;37874;53.158;6.766;2023-06-26T06:09:56;29.80;46.90
51815;DHT22;37874;53.158;6.766;2023-06-26T06:12:21;29.80;46.90
51815;DHT22;37874;53.158;6.766;2023-06-26T06:14:47;29.80;46.90
51815;DHT22;37874;53.158;6.766;2023-06-26T06:17:13;29.70;46.80
51815;DHT22;37874;53.158;6.766;2023-06-26T06:19:38;29.70;46.80
51815;DHT22;37874;53.158;6.766;2023-06-26T06:22:04;29.70;46.80
51815;DHT22;37874;53.158;6.766;2023-06-26T06:24:29;29.70;46.90
51815;DHT22;37874;53.158;6.766;2023-06-26T06:26:55;29.70;46.90
51815;DHT22;37874;53.158;6.766;2023-06-26T06:29:20;29.70;46.90
51815;DHT22;37874;53.158;6.766;2023-06-26T06:31:46;29.70;46.90
51815;DHT22;37874;53.158;6.766;2023-06-26T06:34:12;29.70;46.80
51815;DHT22;37874;53.158;6.766;2023-06-26T06:36:38;29.70;46.80
51815;DHT22;37874;53.158;6.766;2023-06-26T06:39:03;29.70;47.40
51815;DHT22;37874;53.158;6.766;2023-06-26T06:41:29;29.70;46.80
51815;DHT22;37874;53.158;6.766;2023-06-26T06:43:55;29.70;46.80
51815;DHT22;37874;53.158;6.766;2023-06-26T06:46:20;29.70;46.80
51815;DHT22;37874;53.158;6.766;2023-06-26T06:48:46;29.70;47.00
51815;DHT22;37874;53.158;6.766;2023-06-26T06:51:12;29.60;46.80
51815;DHT22;37874;53.158;6.766;2023-06-26T06:53:38;29.70;46.80
51815;DHT22;37874;53.158;6.766;2023-06-26T06:56:04;29.70;46.70
51815;DHT22;37874;53.158;6.766;2023-06-26T06:58:29;29.70;46.70
51815;DHT22;37874;53.158;6.766;2023-06-26T07:00:59;29.70;46.60
51815;DHT22;37874;53.158;6.766;2023-06-26T07:03:25;29.70;47.10
51815;DHT22;37874;53.158;6.766;2023-06-26T07:05:50;29.70;45.80
51815;DHT22;37874;53.158;6.766;2023-06-26T07:08:16;29.60;45.50
51815;DHT22;37874;53.158;6.766;2023-06-26T07:10:41;29.30;45.80
51815;DHT22;37874;53.158;6.766;2023-06-26T07:13:07;29.00;46.40
51815;DHT22;37874;53.158;6.766;2023-06-26T07:15:33;28.60;46.30
51815;DHT22;37874;53.158;6.766;2023-06-26T07:17:58;28.40;47.00
51815;DHT22;37874;53.158;6.766;2023-06-26T07:20:24;28.20;47.10
51815;DHT22;37874;53.158;6.766;2023-06-26T07:22:50;28.00;47.10
51815;DHT22;37874;53.158;6.766;2023-06-26T07:25:16;27.90;46.60
51815;DHT22;37874;53.158;6.766;2023-06-26T07:27:42;27.70;46.60
51815;DHT22;37874;53.158;6.766;2023-06-26T07:30:08;27.60;47.00
51815;DHT22;37874;53.158;6.766;2023-06-26T07:32:35;27.50;47.40
51815;DHT22;37874;53.158;6.766;2023-06-26T07:35:01;27.50;48.00
51815;DHT22;37874;53.158;6.766;2023-06-26T07:37:26;27.40;48.60
51815;DHT22;37874;53.158;6.766;2023-06-26T07:39:52;27.30;48.20
51815;DHT22;37874;53.158;6.766;2023-06-26T07:42:18;27.20;48.20
51815;DHT22;37874;53.158;6.766;2023-06-26T07:44:43;27.10;47.30
51815;DHT22;37874;53.158;6.766;2023-06-26T07:47:10;27.00;47.30
51815;DHT22;37874;53.158;6.766;2023-06-26T07:49:35;27.00;47.20
51815;DHT22;37874;53.158;6.766;2023-06-26T07:52:01;26.90;47.30
51815;DHT22;37874;53.158;6.766;2023-06-26T07:54:27;26.90;47.40
51815;DHT22;37874;53.158;6.766;2023-06-26T07:56:58;26.80;47.50
51815;DHT22;37874;53.158;6.766;2023-06-26T07:59:26;26.90;47.70
51815;DHT22;37874;53.158;6.766;2023-06-26T08:01:53;26.80;47.80
51815;DHT22;37874;53.158;6.766;2023-06-26T08:04:20;26.80;47.60
51815;DHT22;37874;53.158;6.766;2023-06-26T08:06:48;26.90;47.60
51815;DHT22;37874;53.158;6.766;2023-06-26T08:09:13;26.80;47.50
51815;DHT22;37874;53.158;6.766;2023-06-26T08:11:39;26.70;47.60
51815;DHT22;37874;53.158;6.766;2023-06-26T08:14:05;26.60;47.60
51815;DHT22;37874;53.158;6.766;2023-06-26T08:16:30;26.50;47.30
51815;DHT22;37874;53.158;6.766;2023-06-26T08:18:56;26.50;47.30
51815;DHT22;37874;53.158;6.766;2023-06-26T08:21:22;26.50;47.50
51815;DHT22;37874;53.158;6.766;2023-06-26T08:23:47;26.40;47.40
51815;DHT22;37874;53.158;6.766;2023-06-26T08:26:13;26.40;47.50
51815;DHT22;37874;53.158;6.766;2023-06-26T08:28:39;26.40;47.30
51815;DHT22;37874;53.158;6.766;2023-06-26T08:31:04;26.40;47.50
51815;DHT22;37874;53.158;6.766;2023-06-26T08:33:30;26.40;47.30
51815;DHT22;37874;53.158;6.766;2023-06-26T08:35:56;26.50;47.40
51815;DHT22;37874;53.158;6.766;2023-06-26T08:38:21;26.40;47.50
51815;DHT22;37874;53.158;6.766;2023-06-26T08:40:47;26.40;47.60
51815;DHT22;37874;53.158;6.766;2023-06-26T08:43:13;26.40;47.50
51815;DHT22;37874;53.158;6.766;2023-06-26T08:45:39;26.30;47.00
51815;DHT22;37874;53.158;6.766;2023-06-26T08:48:07;26.20;47.00
51815;DHT22;37874;53.158;6.766;2023-06-26T08:50:34;26.30;46.90
51815;DHT22;37874;53.158;6.766;2023-06-26T08:55:41;26.40;47.00
51815;DHT22;37874;53.158;6.766;2023-06-26T08:58:07;26.30;46.80
51815;DHT22;37874;53.158;6.766;2023-06-26T09:00:33;26.40;47.00
51815;DHT22;37874;53.158;6.766;2023-06-26T09:02:59;26.30;47.10
51815;DHT22;37874;53.158;6.766;2023-06-26T09:05:26;26.40;47.30
51815;DHT22;37874;53.158;6.766;2023-06-26T09:07:52;26.40;47.50
51815;DHT22;37874;53.158;6.766;2023-06-26T09:10:21;26.40;47.60
51815;DHT22;37874;53.158;6.766;2023-06-26T09:12:47;26.40;47.50
51815;DHT22;37874;53.158;6.766;2023-06-26T09:15:16;26.40;47.30
51815;DHT22;37874;53.158;6.766;2023-06-26T09:17:44;26.40;47.50
51815;DHT22;37874;53.158;6.766;2023-06-26T09:20:10;26.40;47.80
51815;DHT22;37874;53.158;6.766;2023-06-26T09:22:37;26.30;47.60
51815;DHT22;37874;53.158;6.766;2023-06-26T09:25:05;26.30;47.40
51815;DHT22;37874;53.158;6.766;2023-06-26T09:27:31;26.30;47.40
51815;DHT22;37874;53.158;6.766;2023-06-26T09:29:57;26.20;47.50
51815;DHT22;37874;53.158;6.766;2023-06-26T09:32:27;26.20;47.60
51815;DHT22;37874;53.158;6.766;2023-06-26T09:34:54;26.20;47.40
51815;DHT22;37874;53.158;6.766;2023-06-26T09:37:22;26.20;47.30
51815;DHT22;37874;53.158;6.766;2023-06-26T09:39:50;26.20;47.50
51815;DHT22;37874;53.158;6.766;2023-06-26T09:42:16;26.20;47.70
51815;DHT22;37874;53.158;6.766;2023-06-26T09:44:46;26.10;46.90
51815;DHT22;37874;53.158;6.766;2023-06-26T09:47:16;26.00;47.10
51815;DHT22;37874;53.158;6.766;2023-06-26T09:49:42;26.10;47.00
51815;DHT22;37874;53.158;6.766;2023-06-26T09:52:08;26.00;47.10
51815;DHT22;37874;53.158;6.766;2023-06-26T09:54:34;26.00;46.40
51815;DHT22;37874;53.158;6.766;2023-06-26T09:57:16;26.00;46.30
51815;DHT22;37874;53.158;6.766;2023-06-26T09:59:43;26.00;46.20
51815;DHT22;37874;53.158;6.766;2023-06-26T10:02:12;26.00;46.30
51815;DHT22;37874;53.158;6.766;2023-06-26T10:04:38;26.00;45.90
51815;DHT22;37874;53.158;6.766;2023-06-26T10:07:11;26.10;46.50
51815;DHT22;37874;53.158;6.766;2023-06-26T10:09:41;26.10;47.10
51815;DHT22;37874;53.158;6.766;2023-06-26T10:12:16;26.10;46.70
51815;DHT22;37874;53.158;6.766;2023-06-26T10:14:43;26.10;46.30
51815;DHT22;37874;53.158;6.766;2023-06-26T10:17:16;26.10;45.80
51815;DHT22;37874;53.158;6.766;2023-06-26T10:19:44;26.10;45.60
51815;DHT22;37874;53.158;6.766;2023-06-26T10:22:14;26.10;45.70
51815;DHT22;37874;53.158;6.766;2023-06-26T10:24:41;26.10;45.80
51815;DHT22;37874;53.158;6.766;2023-06-26T10:27:09;26.10;45.60
51815;DHT22;37874;53.158;6.766;2023-06-26T10:29:36;26.10;45.60
51815;DHT22;37874;53.158;6.766;2023-06-26T10:32:04;26.20;45.20
51815;DHT22;37874;53.158;6.766;2023-06-26T10:34:30;26.10;45.20
51815;DHT22;37874;53.158;6.766;2023-06-26T10:37:04;26.20;45.50
51815;DHT22;37874;53.158;6.766;2023-06-26T10:39:53;26.20;45.10
51815;DHT22;37874;53.158;6.766;2023-06-26T10:42:35;26.20;44.50
51815;DHT22;37874;53.158;6.766;2023-06-26T10:47:40;26.10;43.60
51815;DHT22;37874;53.158;6.766;2023-06-26T10:50:30;26.00;43.80
51815;DHT22;37874;53.158;6.766;2023-06-26T10:55:37;26.00;43.70
51815;DHT22;37874;53.158;6.766;2023-06-26T10:58:04;25.90;43.00
51815;DHT22;37874;53.158;6.766;2023-06-26T11:00:30;25.90;43.40
51815;DHT22;37874;53.158;6.766;2023-06-26T11:02:57;26.00;42.80
51815;DHT22;37874;53.158;6.766;2023-06-26T11:05:26;26.00;42.70
51815;DHT22;37874;53.158;6.766;2023-06-26T11:10:30;26.00;43.20
51815;DHT22;37874;53.158;6.766;2023-06-26T11:13:13;26.00;43.30
51815;DHT22;37874;53.158;6.766;2023-06-26T11:15:39;26.00;43.50
51815;DHT22;37874;53.158;6.766;2023-06-26T11:18:05;25.90;43.70
51815;DHT22;37874;53.158;6.766;2023-06-26T11:20:32;25.90;43.80
51815;DHT22;37874;53.158;6.766;2023-06-26T11:22:58;25.90;43.50
51815;DHT22;37874;53.158;6.766;2023-06-26T11:25:24;25.70;42.40
51815;DHT22;37874;53.158;6.766;2023-06-26T11:27:49;25.80;42.40
51815;DHT22;37874;53.158;6.766;2023-06-26T11:30:25;25.80;42.40
51815;DHT22;37874;53.158;6.766;2023-06-26T11:32:51;25.90;42.60
51815;DHT22;37874;53.158;6.766;2023-06-26T11:35:23;25.90;43.00
51815;DHT22;37874;53.158;6.766;2023-06-26T11:37:59;25.90;42.80
51815;DHT22;37874;53.158;6.766;2023-06-26T11:40:29;26.00;42.70
51815;DHT22;37874;53.158;6.766;2023-06-26T11:43:01;26.00;42.60
51815;DHT22;37874;53.158;6.766;2023-06-26T11:45:31;25.90;42.50
51815;DHT22;37874;53.158;6.766;2023-06-26T11:47:58;25.90;42.30
51815;DHT22;37874;53.158;6.766;2023-06-26T11:50:24;25.90;41.80
51815;DHT22;37874;53.158;6.766;2023-06-26T11:52:57;26.00;42.00
51815;DHT22;37874;53.158;6.766;2023-06-26T11:55:24;26.40;41.40
51815;DHT22;37874;53.158;6.766;2023-06-26T11:57:53;26.00;41.10
51815;DHT22;37874;53.158;6.766;2023-06-26T12:00:19;26.00;41.50
51815;DHT22;37874;53.158;6.766;2023-06-26T12:02:46;26.10;42.10
51815;DHT22;37874;53.158;6.766;2023-06-26T12:05:13;26.10;42.40
51815;DHT22;37874;53.158;6.766;2023-06-26T12:07:40;26.10;42.70
51815;DHT22;37874;53.158;6.766;2023-06-26T12:10:07;26.10;40.20
51815;DHT22;37874;53.158;6.766;2023-06-26T12:12:34;26.10;40.50
51815;DHT22;37874;53.158;6.766;2023-06-26T12:14:59;26.10;41.10
51815;DHT22;37874;53.158;6.766;2023-06-26T12:17:26;26.10;41.60
51815;DHT22;37874;53.158;6.766;2023-06-26T12:19:51;26.10;41.50
51815;DHT22;37874;53.158;6.766;2023-06-26T12:22:18;26.20;41.70
51815;DHT22;37874;53.158;6.766;2023-06-26T12:24:45;26.10;40.90
51815;DHT22;37874;53.158;6.766;2023-06-26T12:27:15;26.10;40.40
51815;DHT22;37874;53.158;6.766;2023-06-26T12:29:50;26.10;40.20
51815;DHT22;37874;53.158;6.766;2023-06-26T12:32:16;26.10;40.10
51815;DHT22;37874;53.158;6.766;2023-06-26T12:34:48;26.00;39.80
51815;DHT22;37874;53.158;6.766;2023-06-26T12:37:13;26.10;40.00
51815;DHT22;37874;53.158;6.766;2023-06-26T12:39:53;26.10;40.40
51815;DHT22;37874;53.158;6.766;2023-06-26T12:42:20;26.20;40.50
51815;DHT22;37874;53.158;6.766;2023-06-26T12:44:46;26.10;39.80
51815;DHT22;37874;53.158;6.766;2023-06-26T12:47:14;26.00;39.60
51815;DHT22;37874;53.158;6.766;2023-06-26T12:49:41;26.10;39.70
51815;DHT22;37874;53.158;6.766;2023-06-26T12:52:15;26.00;40.40
51815;DHT22;37874;53.158;6.766;2023-06-26T12:54:42;26.10;40.70
51815;DHT22;37874;53.158;6.766;2023-06-26T12:57:08;26.10;41.00
51815;DHT22;37874;53.158;6.766;2023-06-26T12:59:37;26.20;41.40
51815;DHT22;37874;53.158;6.766;2023-06-26T13:02:03;26.20;41.30
51815;DHT22;37874;53.158;6.766;2023-06-26T13:04:29;26.20;40.90
51815;DHT22;37874;53.158;6.766;2023-06-26T13:06:55;26.10;40.90
51815;DHT22;37874;53.158;6.766;2023-06-26T13:09:22;26.10;40.90
51815;DHT22;37874;53.158;6.766;2023-06-26T13:11:49;26.10;41.00
51815;DHT22;37874;53.158;6.766;2023-06-26T13:14:15;26.00;41.20
51815;DHT22;37874;53.158;6.766;2023-06-26T13:16:40;26.00;41.50
51815;DHT22;37874;53.158;6.766;2023-06-26T13:19:06;26.00;41.70
51815;DHT22;37874;53.158;6.766;2023-06-26T13:21:33;25.90;41.60
51815;DHT22;37874;53.158;6.766;2023-06-26T13:23:58;25.80;41.50
51815;DHT22;37874;53.158;6.766;2023-06-26T13:26:25;25.80;41.90
51815;DHT22;37874;53.158;6.766;2023-06-26T13:28:52;25.70;41.80
51815;DHT22;37874;53.158;6.766;2023-06-26T13:31:18;25.70;41.90
51815;DHT22;37874;53.158;6.766;2023-06-26T13:33:44;25.60;42.00
51815;DHT22;37874;53.158;6.766;2023-06-26T13:36:10;25.60;42.30
51815;DHT22;37874;53.158;6.766;2023-06-26T13:38:36;25.60;42.50
51815;DHT22;37874;53.158;6.766;2023-06-26T13:41:01;25.60;42.40
51815;DHT22;37874;53.158;6.766;2023-06-26T13:43:28;25.60;42.50
51815;DHT22;37874;53.158;6.766;2023-06-26T13:45:54;25.60;42.40
51815;DHT22;37874;53.158;6.766;2023-06-26T13:48:21;25.70;42.40
51815;DHT22;37874;53.158;6.766;2023-06-26T13:50:46;25.70;42.30
51815;DHT22;37874;53.158;6.766;2023-06-26T13:53:13;25.70;42.40
51815;DHT22;37874;53.158;6.766;2023-06-26T13:55:41;25.70;42.30
51815;DHT22;37874;53.158;6.766;2023-06-26T13:58:10;25.70;42.10
51815;DHT22;37874;53.158;6.766;2023-06-26T14:00:37;25.70;41.70
51815;DHT22;37874;53.158;6.766;2023-06-26T14:03:06;25.60;41.50
51815;DHT22;37874;53.158;6.766;2023-06-26T14:05:34;25.70;41.50
51815;DHT22;37874;53.158;6.766;2023-06-26T14:08:03;25.60;41.60
51815;DHT22;37874;53.158;6.766;2023-06-26T14:10:29;25.70;42.00
51815;DHT22;37874;53.158;6.766;2023-06-26T14:12:55;25.70;42.10
51815;DHT22;37874;53.158;6.766;2023-06-26T14:15:21;25.80;42.40
51815;DHT22;37874;53.158;6.766;2023-06-26T14:17:46;25.80;42.00
51815;DHT22;37874;53.158;6.766;2023-06-26T14:20:16;25.80;41.90
51815;DHT22;37874;53.158;6.766;2023-06-26T14:22:43;25.70;41.70
51815;DHT22;37874;53.158;6.766;2023-06-26T14:25:10;25.60;41.30
51815;DHT22;37874;53.158;6.766;2023-06-26T14:27:36;25.70;41.60
51815;DHT22;37874;53.158;6.766;2023-06-26T14:30:03;25.70;41.90
51815;DHT22;37874;53.158;6.766;2023-06-26T14:32:29;25.70;42.30
51815;DHT22;37874;53.158;6.766;2023-06-26T14:34:56;25.80;42.50
51815;DHT22;37874;53.158;6.766;2023-06-26T14:37:21;25.70;42.80
51815;DHT22;37874;53.158;6.766;2023-06-26T14:39:47;25.60;42.90
51815;DHT22;37874;53.158;6.766;2023-06-26T14:42:13;25.60;43.00
51815;DHT22;37874;53.158;6.766;2023-06-26T14:44:38;25.60;43.00
51815;DHT22;37874;53.158;6.766;2023-06-26T14:47:04;25.60;42.70
51815;DHT22;37874;53.158;6.766;2023-06-26T14:49:30;25.60;42.90
51815;DHT22;37874;53.158;6.766;2023-06-26T14:51:56;25.70;43.10
51815;DHT22;37874;53.158;6.766;2023-06-26T14:54:21;25.60;43.30
51815;DHT22;37874;53.158;6.766;2023-06-26T14:56:47;25.60;42.80
51815;DHT22;37874;53.158;6.766;2023-06-26T14:59:12;25.70;42.20
51815;DHT22;37874;53.158;6.766;2023-06-26T15:01:39;25.70;42.30
51815;DHT22;37874;53.158;6.766;2023-06-26T15:04:05;25.60;41.80
51815;DHT22;37874;53.158;6.766;2023-06-26T15:06:31;25.50;42.10
51815;DHT22;37874;53.158;6.766;2023-06-26T15:08:57;25.60;42.50
51815;DHT22;37874;53.158;6.766;2023-06-26T15:11:23;25.50;42.90
51815;DHT22;37874;53.158;6.766;2023-06-26T15:13:49;25.40;42.80
51815;DHT22;37874;53.158;6.766;2023-06-26T15:16:14;25.40;42.40
51815;DHT22;37874;53.158;6.766;2023-06-26T15:18:41;25.40;42.70
51815;DHT22;37874;53.158;6.766;2023-06-26T15:21:07;25.40;42.80
51815;DHT22;37874;53.158;6.766;2023-06-26T15:23:34;25.30;43.30
51815;DHT22;37874;53.158;6.766;2023-06-26T15:25:59;25.40;43.20
51815;DHT22;37874;53.158;6.766;2023-06-26T15:28:25;25.60;43.10
51815;DHT22;37874;53.158;6.766;2023-06-26T15:30:51;25.80;42.90
51815;DHT22;37874;53.158;6.766;2023-06-26T15:33:16;26.00;42.70
51815;DHT22;37874;53.158;6.766;2023-06-26T15:35:42;26.20;42.60
51815;DHT22;37874;53.158;6.766;2023-06-26T15:38:07;26.20;42.70
51815;DHT22;37874;53.158;6.766;2023-06-26T15:40:33;26.40;42.60
51815;DHT22;37874;53.158;6.766;2023-06-26T15:42:58;26.40;42.30